createdAt,value
2023-05-16T00:01:05.991Z,100.00
2023-05-16T00:03:34.858Z,100.00
2023-05-16T00:06:03.566Z,100.00
2023-05-16T00:08:32.261Z,100.00
2023-05-16T00:11:01.553Z,100.00
2023-05-16T00:13:31.760Z,100.00
2023-05-16T00:16:02.629Z,100.00
2023-05-16T00:18:32.541Z,100.00
2023-05-16T00:21:01.771Z,100.00
2023-05-16T00:23:30.341Z,100.00
2023-05-16T00:25:58.878Z,100.00
2023-05-16T00:28:27.432Z,100.00
2023-05-16T00:30:56.071Z,100.00
2023-05-16T00:33:24.716Z,100.00
2023-05-16T00:35:54.803Z,100.00
2023-05-16T00:38:23.403Z,100.00
2023-05-16T00:40:51.927Z,100.00
2023-05-16T00:43:20.555Z,100.00
2023-05-16T00:45:49.101Z,100.00
2023-05-16T00:48:17.805Z,100.00
2023-05-16T00:50:46.613Z,100.00
2023-05-16T00:53:16.839Z,100.00
2023-05-16T00:55:46.187Z,100.00
2023-05-16T00:58:15.183Z,100.00
2023-05-16T01:00:43.795Z,100.00
2023-05-16T01:03:14.836Z,100.00
2023-05-16T01:05:43.575Z,100.00
2023-05-16T01:08:12.241Z,100.00
2023-05-16T01:10:50.642Z,100.00
2023-05-16T01:13:28.429Z,100.00
2023-05-16T01:16:06.141Z,100.00
2023-05-16T01:18:43.421Z,100.00
2023-05-16T01:21:17.551Z,100.00
2023-05-16T01:23:53.824Z,100.00
2023-05-16T01:26:26.680Z,100.00
2023-05-16T01:28:55.888Z,100.00
2023-05-16T01:31:25.301Z,100.00
2023-05-16T01:33:53.894Z,100.00
2023-05-16T01:36:27.243Z,100.00
2023-05-16T01:39:04.138Z,100.00
2023-05-16T01:41:42.522Z,100.00
2023-05-16T01:44:19.007Z,100.00
2023-05-16T01:46:50.264Z,100.00
2023-05-16T01:49:26.515Z,100.00
2023-05-16T01:52:01.471Z,100.00
2023-05-16T01:54:34.294Z,100.00
2023-05-16T01:57:08.386Z,100.00
2023-05-16T01:59:37.603Z,100.00
2023-05-16T02:02:06.264Z,100.00
2023-05-16T02:04:34.832Z,100.00
2023-05-16T02:07:03.541Z,100.00
2023-05-16T02:09:32.080Z,100.00
2023-05-16T02:12:00.894Z,100.00
2023-05-16T02:14:30.823Z,100.00
2023-05-16T02:16:59.883Z,100.00
2023-05-16T02:19:28.505Z,100.00
2023-05-16T02:21:57.280Z,100.00
2023-05-16T02:24:25.977Z,100.00
2023-05-16T02:26:54.538Z,100.00
2023-05-16T02:29:23.086Z,100.00
2023-05-16T02:31:53.042Z,100.00
2023-05-16T02:34:21.616Z,100.00
2023-05-16T02:36:50.626Z,100.00
2023-05-16T02:39:19.170Z,100.00
2023-05-16T02:41:47.698Z,100.00
2023-05-16T02:44:16.248Z,100.00
2023-05-16T02:46:44.958Z,100.00
2023-05-16T02:49:14.976Z,100.00
2023-05-16T02:51:43.538Z,100.00
2023-05-16T02:54:12.093Z,100.00
2023-05-16T02:56:40.601Z,100.00
2023-05-16T02:59:09.157Z,100.00
2023-05-16T03:01:37.768Z,100.00
2023-05-16T03:04:06.536Z,100.00
2023-05-16T03:06:36.510Z,100.00
2023-05-16T03:09:05.095Z,100.00
2023-05-16T03:11:33.612Z,100.00
2023-05-16T03:14:02.197Z,100.00
2023-05-16T03:16:30.894Z,100.00
2023-05-16T03:18:59.591Z,100.00
2023-05-16T03:21:28.239Z,100.00
2023-05-16T03:23:58.327Z,100.00
2023-05-16T03:26:27.585Z,100.00
2023-05-16T03:28:56.212Z,100.00
2023-05-16T03:31:24.818Z,100.00
2023-05-16T03:33:53.354Z,100.00
2023-05-16T03:36:24.330Z,100.00
2023-05-16T03:38:52.877Z,100.00
2023-05-16T03:41:22.819Z,100.00
2023-05-16T03:43:51.437Z,100.00
2023-05-16T03:46:20.130Z,100.00
2023-05-16T03:48:48.799Z,100.00
2023-05-16T03:51:17.352Z,100.00
2023-05-16T03:53:45.873Z,100.00
2023-05-16T03:56:14.408Z,100.00
2023-05-16T03:58:44.279Z,100.00
2023-05-16T04:01:12.809Z,100.00
2023-05-16T04:03:41.352Z,100.00
2023-05-16T04:06:10.007Z,100.00
2023-05-16T04:08:39.803Z,100.00
2023-05-16T04:11:08.424Z,100.00
2023-05-16T04:13:37.120Z,100.00
2023-05-16T04:16:07.699Z,100.00
2023-05-16T04:18:36.316Z,100.00
2023-05-16T04:21:05.388Z,100.00
2023-05-16T04:23:33.980Z,100.00
2023-05-16T04:26:04.735Z,100.00
2023-05-16T04:28:33.571Z,100.00
2023-05-16T04:31:02.220Z,100.00
2023-05-16T04:33:32.311Z,100.00
2023-05-16T04:36:01.553Z,100.00
2023-05-16T04:38:30.064Z,100.00
2023-05-16T04:40:58.584Z,100.00
2023-05-16T04:43:27.236Z,100.00
2023-05-16T04:45:55.907Z,100.00
2023-05-16T04:48:24.527Z,100.00
2023-05-16T04:50:54.438Z,100.00
2023-05-16T04:53:23.155Z,100.00
2023-05-16T04:55:51.688Z,100.00
2023-05-16T04:58:20.201Z,100.00
2023-05-16T05:00:48.754Z,100.00
2023-05-16T05:03:18.053Z,100.00
2023-05-16T05:05:47.865Z,100.00
2023-05-16T05:08:17.796Z,100.00
2023-05-16T05:10:46.342Z,100.00
2023-05-16T05:13:14.980Z,100.00
2023-05-16T05:15:43.518Z,100.00
2023-05-16T05:20:40.514Z,100.00
2023-05-16T05:23:09.048Z,100.00
2023-05-16T05:25:39.735Z,100.00
2023-05-16T05:28:08.293Z,100.00
2023-05-16T05:30:36.982Z,100.00
2023-05-16T05:33:05.612Z,100.00
2023-05-16T05:35:34.283Z,100.00
2023-05-16T05:38:02.838Z,100.00
2023-05-16T05:40:31.343Z,100.00
2023-05-16T05:43:01.277Z,100.00
2023-05-16T05:45:29.939Z,100.00
2023-05-16T05:47:58.786Z,99.12
2023-05-16T05:50:27.364Z,92.99
2023-05-16T05:52:57.076Z,89.66
2023-05-16T05:55:25.851Z,98.72
2023-05-16T05:57:54.752Z,94.51
2023-05-16T06:00:25.036Z,94.11
2023-05-16T06:02:53.758Z,96.57
2023-05-16T06:05:23.829Z,96.92
2023-05-16T06:07:52.483Z,90.02
2023-05-16T06:10:21.496Z,86.83
2023-05-16T06:12:50.169Z,87.31
2023-05-16T06:15:18.888Z,85.59
2023-05-16T06:17:49.099Z,74.92
2023-05-16T06:20:17.774Z,71.77
2023-05-16T06:22:46.300Z,69.31
2023-05-16T06:25:14.823Z,67.49
2023-05-16T06:27:43.337Z,74.12
2023-05-16T06:30:12.470Z,78.26
2023-05-16T06:32:41.530Z,78.63
2023-05-16T06:35:11.844Z,74.48
2023-05-16T06:37:42.745Z,71.46
2023-05-16T06:40:12.374Z,74.95
2023-05-16T06:42:40.955Z,75.17
2023-05-16T06:45:11.080Z,84.54
2023-05-16T06:47:39.713Z,81.85
2023-05-16T06:50:11.443Z,83.87
2023-05-16T06:52:40.649Z,80.98
2023-05-16T06:55:10.256Z,81.07
2023-05-16T06:57:38.954Z,86.56
2023-05-16T07:00:09.598Z,77.19
2023-05-16T07:02:38.332Z,87.14
2023-05-16T07:05:07.974Z,88.21
2023-05-16T07:07:37.925Z,84.30
2023-05-16T07:10:07.223Z,85.25
2023-05-16T07:12:36.958Z,79.64
2023-05-16T07:15:06.294Z,77.64
2023-05-16T07:17:34.902Z,72.83
2023-05-16T07:20:05.514Z,70.36
2023-05-16T07:22:34.285Z,78.49
2023-05-16T07:25:04.516Z,69.65
2023-05-16T07:27:33.160Z,70.13
2023-05-16T07:30:01.721Z,68.21
2023-05-16T07:32:30.381Z,70.29
2023-05-16T07:34:58.924Z,69.71
2023-05-16T07:37:31.202Z,60.92
2023-05-16T07:40:00.008Z,66.16
2023-05-16T07:42:29.927Z,61.12
2023-05-16T07:44:58.545Z,64.72
2023-05-16T07:47:27.225Z,66.25
2023-05-16T07:49:55.860Z,73.20
2023-05-16T07:52:24.398Z,64.07
2023-05-16T07:54:52.974Z,63.96
2023-05-16T07:57:23.966Z,59.71
2023-05-16T07:59:54.849Z,64.98
2023-05-16T08:02:24.750Z,59.97
2023-05-16T08:04:53.490Z,62.71
2023-05-16T08:07:22.038Z,64.92
2023-05-16T08:09:50.630Z,68.69
2023-05-16T08:12:19.404Z,70.27
2023-05-16T08:14:47.970Z,68.17
2023-05-16T08:17:17.889Z,67.98
2023-05-16T08:19:46.480Z,70.74
2023-05-16T08:22:15.101Z,61.44
2023-05-16T08:24:43.679Z,57.18
2023-05-16T08:27:12.373Z,60.13
2023-05-16T08:29:41.124Z,60.28
2023-05-16T08:32:11.384Z,64.99
2023-05-16T08:34:41.289Z,61.90
2023-05-16T08:37:10.439Z,59.88
2023-05-16T08:39:40.649Z,64.90
2023-05-16T08:42:09.989Z,64.71
2023-05-16T08:44:38.555Z,67.19
2023-05-16T08:47:13.989Z,64.37
2023-05-16T08:49:48.558Z,57.71
2023-05-16T08:52:21.975Z,58.50
2023-05-16T08:55:01.928Z,59.65
2023-05-16T08:57:38.792Z,62.50
2023-05-16T09:00:12.196Z,61.02
2023-05-16T09:02:41.690Z,62.32
2023-05-16T09:05:14.666Z,68.83
2023-05-16T09:07:44.196Z,66.31
2023-05-16T09:10:13.869Z,59.39
2023-05-16T09:12:43.511Z,55.17
2023-05-16T09:15:13.029Z,52.62
2023-05-16T09:17:44.828Z,51.97
2023-05-16T09:20:17.680Z,57.16
2023-05-16T09:22:53.813Z,57.65
2023-05-16T09:25:30.200Z,56.53
2023-05-16T09:28:02.324Z,53.13
2023-05-16T09:30:34.266Z,48.38
2023-05-16T09:33:03.742Z,50.65
2023-05-16T09:38:05.513Z,51.64
2023-05-16T09:40:34.127Z,55.53
2023-05-16T09:43:06.889Z,57.14
2023-05-16T09:45:36.358Z,55.06
2023-05-16T09:48:07.564Z,62.99
2023-05-16T09:50:39.102Z,60.23
2023-05-16T09:53:07.920Z,57.56
2023-05-16T09:55:36.583Z,59.62
2023-05-16T09:58:05.167Z,58.66
2023-05-16T10:00:35.156Z,59.81
2023-05-16T10:03:05.920Z,59.50
2023-05-16T10:05:37.101Z,57.05
2023-05-16T10:08:06.289Z,55.99
2023-05-16T10:10:39.569Z,54.71
2023-05-16T10:13:12.444Z,56.04
2023-05-16T10:15:42.348Z,57.31
2023-05-16T10:18:13.474Z,56.98
2023-05-16T10:20:45.569Z,55.41
2023-05-16T10:23:19.669Z,56.99
2023-05-16T10:25:49.535Z,57.48
2023-05-16T10:28:18.441Z,61.56
2023-05-16T10:30:48.353Z,63.01
2023-05-16T10:33:18.988Z,59.65
2023-05-16T10:35:48.965Z,62.51
2023-05-16T10:38:20.281Z,64.76
2023-05-16T10:40:49.822Z,65.89
2023-05-16T10:43:26.818Z,66.33
2023-05-16T10:46:03.527Z,63.81
2023-05-16T10:48:33.715Z,62.79
2023-05-16T10:51:04.865Z,60.19
2023-05-16T10:53:34.796Z,56.55
2023-05-16T10:56:11.146Z,56.79
2023-05-16T10:58:48.093Z,57.02
2023-05-16T11:01:21.210Z,59.81
2023-05-16T11:04:12.618Z,54.76
2023-05-16T11:07:04.493Z,51.38
2023-05-16T11:09:33.083Z,57.34
2023-05-16T11:12:04.021Z,54.73
2023-05-16T11:14:39.541Z,52.12
2023-05-16T11:17:13.533Z,54.34
2023-05-16T11:19:44.994Z,57.35
2023-05-16T11:22:25.783Z,55.23
2023-05-16T11:24:57.307Z,56.62
2023-05-16T11:27:28.631Z,54.97
2023-05-16T11:30:03.300Z,57.47
2023-05-16T11:32:35.302Z,54.12
2023-05-16T11:35:04.781Z,56.91
2023-05-16T11:37:38.536Z,58.79
2023-05-16T11:40:09.825Z,65.59
2023-05-16T11:42:39.804Z,64.65
2023-05-16T11:45:09.507Z,73.95
2023-05-16T11:47:40.090Z,81.44
2023-05-16T11:50:12.401Z,88.99
2023-05-16T11:52:44.578Z,100.00
2023-05-16T11:55:21.423Z,82.79
2023-05-16T11:57:54.033Z,72.96
2023-05-16T12:00:26.649Z,75.79
2023-05-16T12:03:01.582Z,70.30
2023-05-16T12:05:32.085Z,70.42
2023-05-16T12:08:02.807Z,63.73
2023-05-16T12:10:35.095Z,58.09
2023-05-16T12:13:04.900Z,63.78
2023-05-16T12:15:34.384Z,59.66
2023-05-16T12:18:03.544Z,59.24
2023-05-16T12:20:32.435Z,53.65
2023-05-16T12:23:02.421Z,54.17
2023-05-16T12:25:32.887Z,51.51
2023-05-16T12:28:03.580Z,51.71
2023-05-16T12:30:33.293Z,52.48
2023-05-16T12:33:06.753Z,51.56
2023-05-16T12:35:39.074Z,47.12
2023-05-16T12:38:10.613Z,48.21
2023-05-16T12:40:40.594Z,43.30
2023-05-16T12:43:15.530Z,50.41
2023-05-16T12:45:50.505Z,43.32
2023-05-16T12:48:19.182Z,43.46
2023-05-16T12:50:48.886Z,48.33
2023-05-16T12:53:20.061Z,44.74
2023-05-16T12:55:48.798Z,44.70
2023-05-16T12:58:18.477Z,45.64
2023-05-16T13:00:47.071Z,44.66
2023-05-16T13:03:15.688Z,43.95
2023-05-16T13:05:44.881Z,44.91
2023-05-16T13:08:13.441Z,46.81
2023-05-16T13:10:43.311Z,44.47
2023-05-16T13:13:13.686Z,48.79
2023-05-16T13:15:45.714Z,44.29
2023-05-16T13:18:14.426Z,45.00
2023-05-16T13:20:43.647Z,46.21
2023-05-16T13:23:12.237Z,50.76
2023-05-16T13:25:42.201Z,45.12
2023-05-16T13:28:11.041Z,46.44
2023-05-16T13:30:40.137Z,44.36
2023-05-16T13:33:08.808Z,46.59
2023-05-16T13:35:38.494Z,43.72
2023-05-16T13:38:07.098Z,46.13
2023-05-16T13:40:36.663Z,46.50
2023-05-16T13:43:06.869Z,50.17
2023-05-16T13:45:35.523Z,49.19
2023-05-16T13:48:04.618Z,48.87
2023-05-16T13:50:33.985Z,49.40
2023-05-16T13:53:02.821Z,50.90
2023-05-16T13:55:31.528Z,49.72
2023-05-16T13:58:00.116Z,49.44
2023-05-16T14:00:44.618Z,51.60
2023-05-16T14:03:14.618Z,50.64
2023-05-16T14:05:43.278Z,47.09
2023-05-16T14:08:11.863Z,47.86
2023-05-16T14:10:40.477Z,45.71
2023-05-16T14:13:09.049Z,48.81
2023-05-16T14:15:38.936Z,48.24
2023-05-16T14:18:07.706Z,50.35
2023-05-16T14:20:36.397Z,49.31
2023-05-16T14:23:04.993Z,46.90
2023-05-16T14:25:33.546Z,52.12
2023-05-16T14:28:02.099Z,47.84
2023-05-16T14:30:31.628Z,49.50
2023-05-16T14:33:02.304Z,47.50
2023-05-16T14:35:31.308Z,46.74
2023-05-16T14:37:59.959Z,48.26
2023-05-16T14:40:28.499Z,45.63
2023-05-16T14:42:57.054Z,49.13
2023-05-16T14:45:25.735Z,47.56
2023-05-16T14:47:54.502Z,50.18
2023-05-16T14:50:24.580Z,48.28
2023-05-16T14:52:53.730Z,52.02
2023-05-16T14:55:22.926Z,48.37
2023-05-16T14:57:58.920Z,50.19
2023-05-16T15:00:31.509Z,53.98
2023-05-16T15:03:00.255Z,49.42
2023-05-16T15:05:30.496Z,50.57
2023-05-16T15:07:59.126Z,52.54
2023-05-16T15:10:27.980Z,51.82
2023-05-16T15:12:56.625Z,53.91
2023-05-16T15:15:25.164Z,51.24
2023-05-16T15:17:54.832Z,49.66
2023-05-16T15:20:23.606Z,49.80
2023-05-16T15:22:53.532Z,49.74
2023-05-16T15:25:22.202Z,52.86
2023-05-16T15:27:51.206Z,55.31
2023-05-16T15:30:19.744Z,52.99
2023-05-16T15:32:49.295Z,56.23
2023-05-16T15:35:18.106Z,53.32
2023-05-16T15:37:46.684Z,54.57
2023-05-16T15:40:16.984Z,56.41
2023-05-16T15:42:45.589Z,54.30
2023-05-16T15:45:14.421Z,55.23
2023-05-16T15:47:43.335Z,57.81
2023-05-16T15:50:12.630Z,59.69
2023-05-16T15:52:41.385Z,60.74
2023-05-16T15:55:11.965Z,58.73
2023-05-16T15:57:43.863Z,61.54
2023-05-16T16:00:13.585Z,63.19
2023-05-16T16:02:44.965Z,67.63
2023-05-16T16:05:13.574Z,67.64
2023-05-16T16:07:42.163Z,65.88
2023-05-16T16:10:12.033Z,64.60
2023-05-16T16:12:42.023Z,63.90
2023-05-16T16:15:12.123Z,66.31
2023-05-16T16:17:40.729Z,60.58
2023-05-16T16:20:10.125Z,62.90
2023-05-16T16:22:38.680Z,61.52
2023-05-16T16:25:08.202Z,61.40
2023-05-16T16:27:36.738Z,60.58
2023-05-16T16:30:10.297Z,62.06
2023-05-16T16:32:39.114Z,61.69
2023-05-16T16:35:08.172Z,62.88
2023-05-16T16:37:36.909Z,61.90
2023-05-16T16:40:09.189Z,59.55
2023-05-16T16:42:40.478Z,62.26
2023-05-16T16:45:11.486Z,62.70
2023-05-16T16:47:40.580Z,62.05
2023-05-16T16:50:10.917Z,63.43
2023-05-16T16:52:39.521Z,61.28
2023-05-16T16:55:08.945Z,62.73
2023-05-16T16:57:37.559Z,59.93
2023-05-16T17:00:08.906Z,64.92
2023-05-16T17:02:39.045Z,64.70
2023-05-16T17:05:08.771Z,66.07
2023-05-16T17:07:37.373Z,64.57
2023-05-16T17:10:07.950Z,64.61
2023-05-16T17:12:40.724Z,65.25
2023-05-16T17:15:10.619Z,63.45
2023-05-16T17:17:40.614Z,71.60
2023-05-16T17:20:12.647Z,67.67
2023-05-16T17:22:41.401Z,66.30
2023-05-16T17:25:10.892Z,67.95
2023-05-16T17:27:40.739Z,67.16
2023-05-16T17:30:11.648Z,67.03
2023-05-16T17:32:41.580Z,67.33
2023-05-16T17:35:10.659Z,68.01
2023-05-16T17:37:39.344Z,67.16
2023-05-16T17:40:10.638Z,64.64
2023-05-16T17:42:39.168Z,62.72
2023-05-16T17:45:09.033Z,64.75
2023-05-16T17:47:37.901Z,67.63
2023-05-16T17:50:10.327Z,67.08
2023-05-16T17:52:40.471Z,66.25
2023-05-16T17:55:10.915Z,64.36
2023-05-16T17:57:40.034Z,62.82
2023-05-16T18:00:09.753Z,62.55
2023-05-16T18:02:38.813Z,63.78
2023-05-16T18:05:10.372Z,63.88
2023-05-16T18:07:39.004Z,68.78
2023-05-16T18:10:08.745Z,65.64
2023-05-16T18:12:38.694Z,63.03
2023-05-16T18:15:08.929Z,64.40
2023-05-16T18:17:37.779Z,61.45
2023-05-16T18:20:11.037Z,65.56
2023-05-16T18:22:40.291Z,66.39
2023-05-16T18:25:11.538Z,63.98
2023-05-16T18:27:40.688Z,63.93
2023-05-16T18:30:10.748Z,62.01
2023-05-16T18:32:39.542Z,65.54
2023-05-16T18:35:10.173Z,66.03
2023-05-16T18:37:38.814Z,67.93
2023-05-16T18:40:08.891Z,66.07
2023-05-16T18:42:37.481Z,63.49
2023-05-16T18:45:06.678Z,65.31
2023-05-16T18:47:35.556Z,62.17
2023-05-16T18:50:04.762Z,61.79
2023-05-16T18:52:36.029Z,64.20
2023-05-16T18:55:04.919Z,63.80
2023-05-16T18:57:33.816Z,65.00
2023-05-16T19:00:02.434Z,63.22
2023-05-16T19:02:41.374Z,60.69
2023-05-16T19:05:11.422Z,67.12
2023-05-16T19:07:41.605Z,66.17
2023-05-16T19:10:10.772Z,66.47
2023-05-16T19:12:39.348Z,62.46
2023-05-16T19:15:09.286Z,67.94
2023-05-16T19:17:38.836Z,68.04
2023-05-16T19:20:09.326Z,67.52
2023-05-16T19:22:38.032Z,67.87
2023-05-16T19:25:09.101Z,68.44
2023-05-16T19:27:37.786Z,62.42
2023-05-16T19:30:07.569Z,63.25
2023-05-16T19:32:36.254Z,64.96
2023-05-16T19:35:05.495Z,68.42
2023-05-16T19:37:34.119Z,65.69
2023-05-16T19:40:02.851Z,62.92
2023-05-16T19:42:32.798Z,64.64
2023-05-16T19:45:01.368Z,64.27
2023-05-16T19:47:30.133Z,67.46
2023-05-16T19:49:58.745Z,68.91
2023-05-16T19:52:27.383Z,65.55
2023-05-16T19:54:55.956Z,63.98
2023-05-16T19:57:24.574Z,63.43
2023-05-16T19:59:54.564Z,67.52
2023-05-16T20:02:24.516Z,67.75
2023-05-16T20:04:53.985Z,67.46
2023-05-16T20:07:23.145Z,73.33
2023-05-16T20:09:52.018Z,71.54
2023-05-16T20:12:20.642Z,65.97
2023-05-16T20:14:49.210Z,65.25
2023-05-16T20:17:19.127Z,67.39
2023-05-16T20:19:47.865Z,71.07
2023-05-16T20:22:17.108Z,67.58
2023-05-16T20:24:45.735Z,63.79
2023-05-16T20:27:14.266Z,67.04
2023-05-16T20:29:42.848Z,65.55
2023-05-16T20:32:11.483Z,63.24
2023-05-16T20:34:41.876Z,67.54
2023-05-16T20:37:10.437Z,66.38
2023-05-16T20:39:39.079Z,72.11
2023-05-16T20:42:10.874Z,67.96
2023-05-16T20:44:39.531Z,71.03
2023-05-16T20:47:08.821Z,74.83
2023-05-16T20:49:39.750Z,74.51
2023-05-16T20:52:09.917Z,70.96
2023-05-16T20:54:38.491Z,68.94
2023-05-16T20:57:07.533Z,68.20
2023-05-16T20:59:38.717Z,71.04
2023-05-16T21:02:09.763Z,72.68
2023-05-16T21:04:38.477Z,78.69
2023-05-16T21:07:08.897Z,77.37
2023-05-16T21:09:38.046Z,79.96
2023-05-16T21:12:07.319Z,78.96
2023-05-16T21:14:36.526Z,75.85
2023-05-16T21:17:05.334Z,77.30
2023-05-16T21:19:35.450Z,78.31
2023-05-16T21:22:04.268Z,77.19
2023-05-16T21:24:35.635Z,80.72
2023-05-16T21:27:04.744Z,73.33
2023-05-16T21:29:33.331Z,71.31
2023-05-16T21:32:02.005Z,68.25
2023-05-16T21:34:30.672Z,79.76
2023-05-16T21:36:59.970Z,78.75
2023-05-16T21:39:28.580Z,78.37
2023-05-16T21:41:58.506Z,78.15
2023-05-16T21:44:27.081Z,76.33
2023-05-16T21:46:55.609Z,74.15
2023-05-16T21:49:24.180Z,74.51
2023-05-16T21:51:52.795Z,73.49
2023-05-16T21:54:21.368Z,76.83
2023-05-16T21:56:49.921Z,75.55
2023-05-16T21:59:19.857Z,74.06
2023-05-16T22:01:48.433Z,70.48
2023-05-16T22:04:17.256Z,72.81
2023-05-16T22:06:45.920Z,70.07
2023-05-16T22:09:14.482Z,68.10
2023-05-16T22:11:43.044Z,67.65
2023-05-16T22:14:11.651Z,70.40
2023-05-16T22:16:41.706Z,69.99
2023-05-16T22:19:10.293Z,70.88
2023-05-16T22:21:38.868Z,71.21
2023-05-16T22:24:08.079Z,71.83
2023-05-16T22:26:36.725Z,70.50
2023-05-16T22:29:05.274Z,73.12
2023-05-16T22:31:33.846Z,72.66
2023-05-16T22:34:03.916Z,70.79
2023-05-16T22:36:32.581Z,73.54
2023-05-16T22:39:01.205Z,71.06
2023-05-16T22:41:29.795Z,79.34
2023-05-16T22:43:58.428Z,80.72
2023-05-16T22:46:26.985Z,79.00
2023-05-16T22:48:55.578Z,74.62
2023-05-16T22:51:25.631Z,74.44
2023-05-16T22:53:54.197Z,71.62
2023-05-16T22:56:22.754Z,74.45
2023-05-16T22:58:51.456Z,71.48
2023-05-16T23:01:20.056Z,71.47
2023-05-16T23:03:48.793Z,70.90
2023-05-16T23:06:17.395Z,71.50
2023-05-16T23:08:47.289Z,73.71
2023-05-16T23:11:15.838Z,73.90
2023-05-16T23:13:44.417Z,72.80
2023-05-16T23:16:12.991Z,76.47
2023-05-16T23:18:41.726Z,80.99
2023-05-16T23:21:10.648Z,79.85
2023-05-16T23:23:39.363Z,77.58
2023-05-16T23:26:09.600Z,79.21
2023-05-16T23:28:38.316Z,76.78
2023-05-16T23:31:07.150Z,74.26
2023-05-16T23:33:35.903Z,73.39
2023-05-16T23:36:04.837Z,70.87
2023-05-16T23:38:33.550Z,69.37
2023-05-16T23:41:02.269Z,73.19
2023-05-16T23:43:32.875Z,75.30
2023-05-16T23:46:02.430Z,74.72
2023-05-16T23:48:31.497Z,74.11
2023-05-16T23:51:00.478Z,74.04
2023-05-16T23:53:31.181Z,71.77
2023-05-16T23:56:00.395Z,73.76
2023-05-16T23:58:29.543Z,76.16
